Time;durP1;ratioP1;P1;durP2;ratioP2;P2;SDS_P1;SDS_P2;PMS_P1;PMS_P2;Temp;Humidity;BMP_temperature;BMP_pressure;BME280_temperature;BME280_humidity;BME280_pressure;Samples;Min_cycle;Max_cycle;Signal;HPM_P1;HPM_P2
2022/09/19 00:01:58;;;;;;;4.45;1.52;;;18.20;66.70;;;;;;5034002;28;20919;-86
2022/09/19 00:04:28;;;;;;;3.63;1.30;;;18.20;68.00;;;;;;5039738;28;20388;-86
2022/09/19 00:06:59;;;;;;;2.42;1.30;;;18.20;64.60;;;;;;5042988;28;20370;-86
2022/09/19 00:09:32;;;;;;;2.50;1.10;;;18.10;65.40;;;;;;5016197;28;20385;-87
2022/09/19 00:12:00;;;;;;;3.10;1.20;;;18.10;67.10;;;;;;5017171;28;20396;-87
2022/09/19 00:14:31;;;;;;;3.58;1.27;;;18.10;65.60;;;;;;5032765;28;20481;-88
2022/09/19 00:17:01;;;;;;;3.08;1.30;;;18.20;66.30;;;;;;5046875;28;20392;-87
2022/09/19 00:19:29;;;;;;;4.22;1.25;;;18.30;65.90;;;;;;5039177;28;20373;-87
2022/09/19 00:22:01;;;;;;;2.63;1.10;;;18.50;63.20;;;;;;5031589;28;20757;-85
2022/09/19 00:24:48;;;;;;;3.35;1.17;;;18.50;64.70;;;;;;5030852;28;20896;-86
2022/09/19 00:27:22;;;;;;;3.00;1.05;;;18.90;63.40;;;;;;5013271;28;20403;-86
2022/09/19 00:29:49;;;;;;;2.42;1.10;;;19.10;60.20;;;;;;5030955;28;20382;-87
2022/09/19 00:32:19;;;;;;;3.33;1.10;;;19.30;59.60;;;;;;5033512;28;20408;-86
2022/09/19 00:34:48;;;;;;;2.25;1.10;;;18.90;59.50;;;;;;5035241;28;20372;-88
2022/09/19 00:37:18;;;;;;;2.65;1.02;;;18.80;57.70;;;;;;5036529;28;20879;-87
2022/09/19 00:39:46;;;;;;;2.42;1.00;;;18.60;58.70;;;;;;5015798;28;20389;-86
2022/09/19 00:42:23;;;;;;;3.55;1.00;;;18.60;59.20;;;;;;5031932;28;20905;-87
2022/09/19 00:44:54;;;;;;;2.85;1.08;;;18.90;60.70;;;;;;5030713;28;20392;-87
2022/09/19 00:47:25;;;;;;;2.67;1.08;;;19.30;59.20;;;;;;5030805;28;20424;-89
2022/09/19 00:49:56;;;;;;;2.67;1.30;;;19.30;59.10;;;;;;5031045;28;20373;-89
2022/09/19 00:52:48;;;;;;;3.20;1.15;;;19.10;60.70;;;;;;5021182;28;20387;-87
2022/09/19 00:55:16;;;;;;;2.80;1.27;;;18.90;60.10;;;;;;5036588;28;20379;-87
2022/09/19 00:58:02;;;;;;;2.93;1.03;;;18.90;61.00;;;;;;5040665;28;20737;-88
2022/09/19 01:00:29;;;;;;;3.22;1.20;;;19.20;59.20;;;;;;5030519;28;20737;-89
2022/09/19 01:02:57;;;;;;;13.40;2.40;;;19.40;60.30;;;;;;5030498;28;20808;-86
2022/09/19 01:05:33;;;;;;;6.38;1.88;;;19.60;60.90;;;;;;5031088;28;20742;-88
2022/09/19 01:08:21;;;;;;;3.83;1.20;;;19.70;59.20;;;;;;5030356;28;20416;-87
2022/09/19 01:11:19;;;;;;;5.45;1.40;;;19.80;57.60;;;;;;5030365;28;20377;-87
2022/09/19 01:13:59;;;;;;;3.83;1.20;;;19.80;59.60;;;;;;5030341;28;20370;-87
2022/09/19 01:16:42;;;;;;;10.00;1.70;;;20.00;56.90;;;;;;5030130;28;20409;-86
2022/09/19 01:19:39;;;;;;;6.22;1.50;;;19.80;58.90;;;;;;5030088;28;20853;-87
2022/09/19 01:22:34;;;;;;;4.28;1.20;;;19.80;59.20;;;;;;5030210;28;20396;-88
2022/09/19 01:25:16;;;;;;;2.35;1.17;;;20.30;59.20;;;;;;5030199;28;20814;-87
2022/09/19 01:28:10;;;;;;;3.30;1.20;;;20.60;56.80;;;;;;5030399;28;20435;-86
2022/09/19 01:31:18;;;;;;;3.40;1.20;;;21.10;55.80;;;;;;5029897;28;20478;-88
2022/09/19 01:34:16;;;;;;;2.97;1.10;;;21.30;54.60;;;;;;4977412;28;20509;-87
2022/09/19 01:37:09;;;;;;;3.92;1.05;;;21.90;55.10;;;;;;4969927;28;20485;-86
2022/09/19 01:39:40;;;;;;;3.00;1.10;;;22.40;52.90;;;;;;4968631;28;20441;-86
2022/09/19 01:42:11;;;;;;;2.03;0.90;;;23.40;52.20;;;;;;4972665;28;20822;-88
2022/09/19 01:44:38;;;;;;;2.45;1.05;;;24.30;50.30;;;;;;4972616;28;20512;-86
2022/09/19 01:47:17;;;;;;;2.22;1.02;;;24.40;50.00;;;;;;4986001;28;20429;-88
2022/09/19 01:50:10;;;;;;;2.75;1.02;;;24.80;48.40;;;;;;4972735;28;20387;-88
2022/09/19 01:52:59;;;;;;;1.77;1.00;;;24.10;49.60;;;;;;4972505;28;20394;-87
2022/09/19 01:55:47;;;;;;;4.57;1.20;;;23.90;50.00;;;;;;4972428;28;20496;-87
2022/09/19 01:58:48;;;;;;;4.97;1.20;;;23.80;49.50;;;;;;4972298;28;20867;-86
2022/09/19 02:01:20;;;;;;;4.38;1.20;;;23.90;49.70;;;;;;4972559;28;20905;-86
2022/09/19 02:04:07;;;;;;;5.03;1.40;;;24.70;48.40;;;;;;4972410;28;20453;-86
2022/09/19 02:07:27;;;;;;;3.13;1.10;;;25.20;47.80;;;;;;4972470;28;20457;-86
2022/09/19 02:10:09;;;;;;;3.83;1.10;;;25.90;46.80;;;;;;4905011;29;20445;-87
2022/09/19 02:12:40;;;;;;;6.65;1.30;;;25.60;46.50;;;;;;4949525;28;20388;-86
2022/09/19 02:15:13;;;;;;;3.30;1.08;;;26.00;45.60;;;;;;4953481;28;20927;-88
2022/09/19 02:17:53;;;;;;;2.15;1.00;;;25.60;45.40;;;;;;4954843;28;20478;-88
2022/09/19 02:20:47;;;;;;;4.55;0.98;;;25.20;45.80;;;;;;4958898;28;20388;-88
2022/09/19 02:23:24;;;;;;;2.42;1.00;;;24.80;45.90;;;;;;4941568;29;20415;-87
2022/09/19 02:25:56;;;;;;;2.70;1.20;;;24.80;47.20;;;;;;4956941;28;20876;-86
2022/09/19 02:28:31;;;;;;;4.23;1.00;;;25.10;47.30;;;;;;4957033;28;20424;-87
2022/09/19 02:30:59;;;;;;;2.85;1.10;;;25.50;45.20;;;;;;4962695;28;20432;-84
2022/09/19 02:33:27;;;;;;;3.03;1.10;;;26.00;45.60;;;;;;4973647;28;20417;-85
2022/09/19 02:36:19;;;;;;;3.40;1.00;;;27.20;44.30;;;;;;4973123;29;20392;-86
2022/09/19 02:38:58;;;;;;;2.72;1.00;;;28.20;42.90;;;;;;4966960;29;20476;-88
2022/09/19 02:41:36;;;;;;;5.13;1.08;;;28.00;43.00;;;;;;4973925;28;20385;-87
2022/09/19 02:44:19;;;;;;;3.20;1.00;;;26.60;42.80;;;;;;4969900;28;20415;-86
2022/09/19 02:47:16;;;;;;;2.50;0.90;;;26.40;44.30;;;;;;4987640;28;20425;-87
2022/09/19 02:49:53;;;;;;;2.17;1.00;;;26.80;44.30;;;;;;5024418;28;20389;-89
2022/09/19 02:52:28;;;;;;;1.80;0.85;;;26.30;44.00;;;;;;5038737;28;20381;-87
2022/09/19 02:55:04;;;;;;;2.75;0.85;;;26.30;44.30;;;;;;5033662;28;20457;-86
2022/09/19 02:57:34;;;;;;;1.50;1.00;;;27.20;43.50;;;;;;5033144;28;20373;-87
2022/09/19 03:00:04;;;;;;;3.47;1.00;;;28.10;41.90;;;;;;5033168;28;20384;-88
2022/09/19 03:02:43;;;;;;;5.30;1.10;;;29.20;41.30;;;;;;5032366;28;20392;-87
2022/09/19 03:05:21;;;;;;;3.10;0.90;;;29.70;39.90;;;;;;5033136;28;20385;-88
2022/09/19 03:08:05;;;;;;;2.10;0.90;;;28.60;41.20;;;;;;5032530;28;20370;-86
2022/09/19 03:10:35;;;;;;;1.88;0.80;;;28.60;41.60;;;;;;5029508;28;20432;-88
2022/09/19 03:13:10;;;;;;;2.65;0.90;;;29.70;40.60;;;;;;5032548;28;20424;-87
2022/09/19 03:15:56;;;;;;;4.57;0.80;;;29.10;39.40;;;;;;5032472;28;20369;-88
2022/09/19 03:18:26;;;;;;;1.43;0.80;;;28.80;40.60;;;;;;5020804;28;20428;-87
2022/09/19 03:20:59;;;;;;;2.22;0.80;;;29.00;39.60;;;;;;5032041;28;20419;-88
2022/09/19 03:23:48;;;;;;;1.58;0.70;;;29.10;39.90;;;;;;5032464;28;20409;-87
2022/09/19 03:26:21;;;;;;;1.05;0.70;;;28.70;40.50;;;;;;5046427;28;20427;-87
2022/09/19 03:28:48;;;;;;;1.60;0.90;;;28.90;40.20;;;;;;5032345;28;20383;-88
2022/09/19 03:31:16;;;;;;;1.43;0.70;;;28.80;40.90;;;;;;5033639;28;20923;-88
2022/09/19 03:33:43;;;;;;;4.00;0.90;;;27.40;40.40;;;;;;5043461;28;20753;-87
2022/09/19 03:36:11;;;;;;;1.40;0.80;;;26.20;43.10;;;;;;5045775;28;20450;-88
2022/09/19 03:38:44;;;;;;;1.90;0.65;;;25.70;43.00;;;;;;5031975;28;20957;-89
2022/09/19 03:41:13;;;;;;;1.30;0.80;;;25.60;43.00;;;;;;5014147;28;20467;-87
2022/09/19 03:43:43;;;;;;;1.98;0.80;;;25.50;42.60;;;;;;5032339;28;20405;-88
2022/09/19 03:46:16;;;;;;;1.83;0.80;;;24.90;43.60;;;;;;5044750;28;20884;-88
2022/09/19 03:48:47;;;;;;;1.30;0.60;;;25.40;43.80;;;;;;5032286;28;20389;-88
2022/09/19 03:51:16;;;;;;;1.42;0.70;;;25.70;42.90;;;;;;5035878;28;20449;-87
2022/09/19 03:53:44;;;;;;;1.57;0.70;;;25.70;42.90;;;;;;5038337;28;20381;-85
2022/09/19 03:56:12;;;;;;;11.32;1.50;;;26.40;42.30;;;;;;5041037;28;20381;-86
2022/09/19 03:58:41;;;;;;;2.38;0.70;;;27.70;41.50;;;;;;5036687;28;20893;-87
2022/09/19 04:01:08;;;;;;;3.03;0.80;;;29.10;40.60;;;;;;5033112;28;20378;-88
2022/09/19 04:03:37;;;;;;;2.75;0.65;;;29.70;40.10;;;;;;5032080;28;20467;-87
2022/09/19 04:06:05;;;;;;;2.35;0.60;;;30.70;38.10;;;;;;5013864;28;21220;-87
2022/09/19 04:08:33;;;;;;;1.70;0.75;;;30.90;37.40;;;;;;4997585;28;20932;-87
2022/09/19 04:11:00;;;;;;;1.70;0.70;;;30.90;38.10;;;;;;5031462;28;20384;-86
2022/09/19 04:13:29;;;;;;;5.13;0.90;;;31.00;37.70;;;;;;5031488;28;20381;-86
2022/09/19 04:15:57;;;;;;;3.97;0.90;;;31.50;36.80;;;;;;5031246;28;20405;-88
2022/09/19 04:18:24;;;;;;;11.75;1.70;;;31.50;36.70;;;;;;5013649;28;20748;-88
2022/09/19 04:20:51;;;;;;;2.13;0.70;;;31.60;36.10;;;;;;5031163;28;20388;-88
2022/09/19 04:23:18;;;;;;;2.42;0.60;;;31.40;35.30;;;;;;5031407;28;20397;-87
2022/09/19 04:25:46;;;;;;;2.03;0.60;;;31.30;35.40;;;;;;5030957;28;20389;-88
2022/09/19 04:28:17;;;;;;;1.58;0.60;;;30.10;34.60;;;;;;5031052;28;20373;-89
2022/09/19 04:30:44;;;;;;;1.40;0.70;;;29.00;36.30;;;;;;5031359;28;20877;-87
2022/09/19 04:33:13;;;;;;;2.05;0.60;;;28.40;36.00;;;;;;5013251;28;20401;-87
2022/09/19 04:35:43;;;;;;;1.20;0.50;;;27.60;36.70;;;;;;5041551;28;20799;-87
2022/09/19 04:38:17;;;;;;;3.10;0.60;;;27.60;37.60;;;;;;5033943;28;20920;-88
2022/09/19 04:40:46;;;;;;;1.95;0.50;;;28.00;36.70;;;;;;5013105;28;20389;-88
2022/09/19 04:43:16;;;;;;;4.18;0.90;;;28.40;36.40;;;;;;5030646;28;20436;-87
2022/09/19 04:45:47;;;;;;;8.68;1.25;;;29.10;36.40;;;;;;5039981;28;20384;-86
2022/09/19 04:48:15;;;;;;;2.60;0.50;;;29.30;36.40;;;;;;5035099;28;20376;-87
2022/09/19 04:50:45;;;;;;;4.70;0.93;;;29.50;35.70;;;;;;5031106;28;20394;-86
2022/09/19 04:53:13;;;;;;;10.65;1.00;;;29.70;35.90;;;;;;5030296;28;20409;-86
2022/09/19 04:55:40;;;;;;;2.00;0.55;;;30.00;35.60;;;;;;5030678;28;20784;-87
2022/09/19 04:58:07;;;;;;;0.70;0.40;;;29.50;33.10;;;;;;5030829;28;20381;-87
2022/09/19 05:00:38;;;;;;;0.43;0.30;;;28.50;34.60;;;;;;5016906;28;20787;-87
2022/09/19 05:03:15;;;;;;;1.50;0.50;;;28.90;34.00;;;;;;5030900;28;20397;-87
2022/09/19 05:05:53;;;;;;;11.07;1.10;;;28.70;33.60;;;;;;5030692;28;20915;-87
2022/09/19 05:08:26;;;;;;;3.38;0.70;;;27.80;34.30;;;;;;5014582;28;20377;-86
2022/09/19 05:11:01;;;;;;;4.85;0.73;;;28.20;33.70;;;;;;5031154;28;20478;-87
2022/09/19 05:13:31;;;;;;;1.20;0.50;;;29.10;33.80;;;;;;5032120;28;20745;-88
2022/09/19 05:16:02;;;;;;;1.65;0.60;;;28.60;33.60;;;;;;5035944;28;20373;-87
2022/09/19 05:18:35;;;;;;;1.33;0.50;;;28.10;33.20;;;;;;5030040;28;20376;-87
2022/09/19 05:21:08;;;;;;;1.03;0.40;;;27.20;33.70;;;;;;5056892;28;20475;-88
2022/09/19 05:23:41;;;;;;;1.80;0.52;;;26.50;34.80;;;;;;5040551;28;20408;-86
2022/09/19 05:26:16;;;;;;;1.67;0.60;;;26.30;34.30;;;;;;5035846;28;20385;-87
2022/09/19 05:28:45;;;;;;;1.00;0.47;;;26.00;34.70;;;;;;5040661;28;20381;-89
2022/09/19 05:31:15;;;;;;;0.65;0.50;;;26.00;33.50;;;;;;5023306;28;20409;-88
2022/09/19 05:33:42;;;;;;;0.40;0.40;;;26.10;34.10;;;;;;5039183;28;20389;-89
2022/09/19 05:36:09;;;;;;;1.10;0.40;;;26.00;33.60;;;;;;5020764;28;20763;-88
2022/09/19 05:38:38;;;;;;;1.53;0.60;;;26.10;33.70;;;;;;5041086;28;20385;-86
2022/09/19 05:41:05;;;;;;;3.50;0.60;;;26.50;33.80;;;;;;5009700;28;20389;-87
2022/09/19 05:43:33;;;;;;;1.30;0.70;;;26.70;32.80;;;;;;5046159;28;20507;-80
2022/09/19 05:46:01;;;;;;;7.28;1.65;;;26.40;33.20;;;;;;5049339;28;20377;-86
2022/09/19 05:48:29;;;;;;;2.47;0.60;;;26.60;33.10;;;;;;5036740;28;20469;-85
2022/09/19 05:50:57;;;;;;;1.60;0.47;;;26.50;34.00;;;;;;5039418;28;20849;-86
2022/09/19 05:56:09;;;;;;;16.33;2.20;;;25.90;33.50;;;;;;5041476;28;20884;-86
2022/09/19 05:58:37;;;;;;;5.63;0.80;;;26.00;33.60;;;;;;5038106;28;20385;-85
2022/09/19 06:01:06;;;;;;;1.50;0.50;;;26.30;33.90;;;;;;5036721;28;20416;-86
2022/09/19 06:03:34;;;;;;;3.20;0.80;;;26.60;32.80;;;;;;5016611;28;20933;-85
2022/09/19 06:06:08;;;;;;;1.50;0.50;;;27.00;32.90;;;;;;5055568;28;20376;-89
2022/09/19 06:08:35;;;;;;;1.75;0.50;;;26.40;32.40;;;;;;5036420;28;20420;-90
2022/09/19 06:11:02;;;;;;;1.58;0.50;;;26.00;32.80;;;;;;5024462;28;20378;-88
2022/09/19 06:16:20;;;;;;;0.70;0.50;;;25.50;32.90;;;;;;5026566;28;20523;-87
2022/09/19 06:18:47;;;;;;;3.67;1.00;;;25.40;34.30;;;;;;5036393;28;20766;-88
2022/09/19 06:21:16;;;;;;;1.10;0.50;;;26.00;33.50;;;;;;5022994;28;20388;-87
2022/09/19 06:23:46;;;;;;;1.42;0.50;;;25.90;32.90;;;;;;5036853;28;21047;-87
2022/09/19 06:26:13;;;;;;;1.80;0.50;;;25.70;33.50;;;;;;5034729;28;20386;-85
2022/09/19 06:28:41;;;;;;;1.00;0.50;;;25.60;33.20;;;;;;5038479;28;20385;-86
2022/09/19 06:31:09;;;;;;;2.03;0.60;;;25.60;33.20;;;;;;5027114;28;20794;-87
2022/09/19 06:33:36;;;;;;;2.10;0.60;;;25.50;33.20;;;;;;5005263;28;20505;-83
2022/09/19 06:36:06;;;;;;;1.47;0.50;;;25.20;32.80;;;;;;5020198;28;20528;-88
2022/09/19 06:38:33;;;;;;;2.20;0.68;;;24.90;33.30;;;;;;5005053;28;20383;-86
2022/09/19 06:41:01;;;;;;;2.95;0.50;;;24.90;33.00;;;;;;5028542;28;20764;-78
2022/09/19 06:43:30;;;;;;;3.97;0.93;;;25.10;33.30;;;;;;5023479;28;20389;-83
2022/09/19 06:45:57;;;;;;;1.85;0.68;;;25.20;32.20;;;;;;5017801;28;20377;-84
2022/09/19 06:48:24;;;;;;;1.63;0.55;;;24.70;32.40;;;;;;5037777;28;20395;-78
2022/09/19 06:50:52;;;;;;;3.35;1.10;;;24.40;33.90;;;;;;5035760;28;20383;-90
2022/09/19 06:53:19;;;;;;;5.97;1.10;;;24.50;33.90;;;;;;5034380;28;20373;-83
2022/09/19 06:55:47;;;;;;;37.72;3.83;;;24.50;33.80;;;;;;5024730;28;20386;-78
2022/09/19 06:58:15;;;;;;;8.93;1.30;;;24.80;34.20;;;;;;5034952;28;20389;-82
2022/09/19 07:00:44;;;;;;;6.05;0.75;;;25.00;33.50;;;;;;5034303;28;20377;-83
2022/09/19 07:03:15;;;;;;;4.43;0.90;;;24.90;33.40;;;;;;5032520;28;20517;-76
2022/09/19 07:05:45;;;;;;;7.53;0.90;;;24.40;33.90;;;;;;5027358;28;20454;-78
2022/09/19 07:08:13;;;;;;;5.30;0.98;;;24.30;34.30;;;;;;5038163;28;20485;-76
2022/09/19 07:10:43;;;;;;;4.65;0.98;;;24.10;34.50;;;;;;5041034;28;20381;-80
2022/09/19 07:13:13;;;;;;;2.40;0.73;;;23.80;35.10;;;;;;5035816;28;20377;-87
2022/09/19 07:15:44;;;;;;;2.42;0.70;;;23.70;35.20;;;;;;5016419;28;20738;-87
2022/09/19 07:18:13;;;;;;;4.85;0.80;;;23.50;34.90;;;;;;5040394;28;20409;-85
2022/09/19 07:20:40;;;;;;;3.13;0.70;;;23.20;35.90;;;;;;5036646;28;20385;-85
2022/09/19 07:23:17;;;;;;;2.30;0.60;;;23.10;36.00;;;;;;5037727;28;20416;-85
2022/09/19 07:25:45;;;;;;;5.15;0.90;;;22.90;36.60;;;;;;5039831;28;20385;-85
2022/09/19 07:28:16;;;;;;;15.25;1.30;;;22.80;36.90;;;;;;5037075;28;20385;-83
2022/09/19 07:30:46;;;;;;;9.98;1.50;;;22.60;37.70;;;;;;5039295;28;20382;-85
2022/09/19 07:33:16;;;;;;;7.00;1.40;;;22.10;39.10;;;;;;5038074;28;20476;-85
2022/09/19 07:35:43;;;;;;;9.63;1.80;;;21.60;40.00;;;;;;5015743;28;20383;-83
2022/09/19 07:38:18;;;;;;;4.90;1.50;;;20.90;41.30;;;;;;5034678;28;20858;-86
2022/09/19 07:40:46;;;;;;;5.63;1.50;;;20.40;42.50;;;;;;5039432;28;20376;-85
2022/09/19 07:43:16;;;;;;;6.25;1.48;;;20.00;43.20;;;;;;5025432;28;20410;-84
2022/09/19 07:45:46;;;;;;;8.90;1.70;;;19.60;44.20;;;;;;5036233;28;20492;-86
2022/09/19 07:48:14;;;;;;;10.93;1.52;;;19.30;45.40;;;;;;5005093;28;20402;-85
2022/09/19 07:50:41;;;;;;;9.15;1.58;;;19.10;45.50;;;;;;5032601;28;20410;-87
2022/09/19 07:53:12;;;;;;;7.53;1.45;;;18.80;45.90;;;;;;5028778;28;20383;-85
2022/09/19 07:55:43;;;;;;;8.75;2.20;;;18.60;46.50;;;;;;5029742;28;20391;-89
2022/09/19 07:58:12;;;;;;;13.95;10.82;;;18.40;47.20;;;;;;5032434;28;20390;-90
2022/09/19 08:00:40;;;;;;;15.70;11.00;;;18.20;48.40;;;;;;5009883;28;20383;-85
2022/09/19 08:03:11;;;;;;;63.40;45.22;;;18.00;51.90;;;;;;5030082;28;20464;-86
2022/09/19 08:05:44;;;;;;;33.90;23.23;;;17.80;53.10;;;;;;5035363;28;20376;-85
2022/09/19 08:08:15;;;;;;;8.05;4.63;;;17.80;55.80;;;;;;5031469;28;20436;-85
2022/09/19 08:10:49;;;;;;;4.07;2.10;;;17.60;57.20;;;;;;5040683;28;20374;-86
2022/09/19 08:13:18;;;;;;;3.75;1.88;;;17.50;58.00;;;;;;5041076;28;20383;-85
2022/09/19 08:15:51;;;;;;;4.75;1.65;;;17.40;58.70;;;;;;5039784;28;20381;-85
2022/09/19 08:18:21;;;;;;;3.95;1.50;;;17.20;59.10;;;;;;5039028;28;20388;-85
2022/09/19 08:20:51;;;;;;;2.78;1.38;;;17.10;59.70;;;;;;5038312;28;20382;-83
2022/09/19 08:23:22;;;;;;;3.23;1.23;;;17.00;59.70;;;;;;5025143;28;20430;-85
2022/09/19 08:25:51;;;;;;;3.95;1.50;;;16.90;60.00;;;;;;5035486;28;20388;-84
2022/09/19 08:28:20;;;;;;;3.63;1.80;;;16.70;60.60;;;;;;5019727;28;20408;-85
2022/09/19 08:30:48;;;;;;;4.63;1.20;;;16.70;61.70;;;;;;5034550;28;20409;-85
2022/09/19 08:33:16;;;;;;;1.95;1.02;;;16.60;61.60;;;;;;5016846;28;20415;-84
2022/09/19 08:35:44;;;;;;;2.72;1.40;;;16.60;61.10;;;;;;5024846;28;20391;-85
2022/09/19 08:38:13;;;;;;;2.47;1.40;;;16.40;61.40;;;;;;5027418;28;20393;-84
2022/09/19 08:40:46;;;;;;;4.32;1.55;;;16.30;62.00;;;;;;5028825;28;20805;-83
2022/09/19 08:43:13;;;;;;;3.83;1.60;;;16.30;63.30;;;;;;5042219;28;20483;-85
2022/09/19 08:46:01;;;;;;;3.67;1.83;;;16.20;63.40;;;;;;5041336;28;20378;-83
2022/09/19 08:49:05;;;;;;;3.13;1.93;;;16.20;63.60;;;;;;5002735;28;20377;-86
2022/09/19 08:51:59;;;;;;;5.85;2.45;;;16.10;63.90;;;;;;4988326;28;20391;-84
2022/09/19 08:54:34;;;;;;;3.72;1.73;;;15.90;64.10;;;;;;4969003;28;20388;-85
2022/09/19 08:57:02;;;;;;;2.50;1.50;;;15.80;64.60;;;;;;4958041;28;20407;-85
2022/09/19 08:59:39;;;;;;;5.03;1.65;;;15.80;65.40;;;;;;4941331;28;20792;-83
2022/09/19 09:02:30;;;;;;;3.85;1.85;;;15.70;66.00;;;;;;4952108;28;20412;-77
2022/09/19 09:04:58;;;;;;;3.47;1.67;;;15.60;66.60;;;;;;4903007;29;20456;-83
2022/09/19 09:07:34;;;;;;;3.35;1.50;;;15.60;67.60;;;;;;4909669;29;20404;-86
2022/09/19 09:10:21;;;;;;;3.85;1.30;;;15.40;67.90;;;;;;4915089;29;20520;-86
2022/09/19 09:13:21;;;;;;;3.80;1.20;;;15.30;68.60;;;;;;4914997;29;20462;-83
2022/09/19 09:16:12;;;;;;;5.50;1.35;;;15.20;69.60;;;;;;4920614;29;20542;-81
2022/09/19 09:19:06;;;;;;;4.07;1.50;;;15.10;70.60;;;;;;4922420;29;20732;-81
2022/09/19 09:21:40;;;;;;;5.05;1.30;;;15.00;71.50;;;;;;4914062;29;20510;-83
2022/09/19 09:24:18;;;;;;;3.70;1.10;;;14.90;72.10;;;;;;4911807;29;20467;-83
2022/09/19 09:26:47;;;;;;;3.72;1.50;;;14.80;72.90;;;;;;4948059;28;20420;-84
2022/09/19 09:29:43;;;;;;;3.38;1.20;;;14.80;73.70;;;;;;4951493;28;20447;-84
2022/09/19 09:32:43;;;;;;;3.55;1.40;;;14.70;75.40;;;;;;4963519;28;20402;-81
2022/09/19 09:35:34;;;;;;;2.63;1.20;;;14.60;75.80;;;;;;4935744;29;20489;-82
2022/09/19 09:38:24;;;;;;;3.45;1.50;;;14.50;77.70;;;;;;4938549;29;20472;-82
2022/09/19 09:44:15;;;;;;;4.05;1.40;;;14.40;81.40;;;;;;4963309;28;20452;-83
2022/09/19 09:47:01;;;;;;;3.63;1.50;;;14.40;83.70;;;;;;4940312;28;20420;-83
2022/09/19 09:49:31;;;;;;;4.28;1.58;;;14.40;85.70;;;;;;4970650;28;20401;-83
2022/09/19 09:52:34;;;;;;;3.92;1.17;;;14.40;86.90;;;;;;4965329;28;20378;-84
2022/09/19 09:58:19;;;;;;;4.45;1.60;;;14.20;89.30;;;;;;4958800;28;20871;-83
2022/09/19 10:03:45;;;;;;;5.13;1.80;;;14.00;91.80;;;;;;4960691;28;20605;-83
2022/09/19 10:06:31;;;;;;;5.60;2.00;;;13.90;92.70;;;;;;4971265;28;20441;-84
2022/09/19 10:09:25;;;;;;;4.60;1.50;;;13.80;93.60;;;;;;4959635;28;20792;-84
2022/09/19 10:11:56;;;;;;;6.47;1.98;;;13.70;94.80;;;;;;4994090;28;20395;-81
2022/09/19 10:14:33;;;;;;;5.22;2.30;;;13.80;95.30;;;;;;5036245;28;20409;-84
2022/09/19 10:17:11;;;;;;;5.68;2.08;;;13.70;95.70;;;;;;5021141;28;20506;-84
2022/09/19 10:19:53;;;;;;;10.55;2.00;;;13.60;96.80;;;;;;5005175;28;20439;-83
2022/09/19 10:22:23;;;;;;;10.52;2.00;;;13.50;97.00;;;;;;5039532;28;20393;-83
2022/09/19 10:25:01;;;;;;;23.17;2.90;;;13.50;97.70;;;;;;5021563;28;20397;-84
2022/09/19 10:27:49;;;;;;;34.22;3.45;;;13.50;97.80;;;;;;5002989;28;20392;-82
2022/09/19 10:30:25;;;;;;;25.10;3.23;;;13.50;97.60;;;;;;4994685;28;20400;-83
2022/09/19 10:32:54;;;;;;;30.08;3.35;;;13.50;97.50;;;;;;4978899;28;20395;-81
2022/09/19 10:35:27;;;;;;;26.83;2.97;;;13.50;97.00;;;;;;4974236;28;20456;-82
2022/09/19 10:38:16;;;;;;;22.08;2.72;;;13.60;96.50;;;;;;4971561;28;20382;-83
2022/09/19 10:41:01;;;;;;;20.38;2.50;;;13.60;96.20;;;;;;4974741;28;20849;-81
2022/09/19 10:43:48;;;;;;;18.13;2.50;;;13.70;95.80;;;;;;4975645;28;20417;-83
2022/09/19 10:46:36;;;;;;;18.67;2.13;;;13.70;95.90;;;;;;4975956;28;20382;-83
2022/09/19 10:49:20;;;;;;;13.38;2.00;;;13.60;95.70;;;;;;4976512;28;20397;-82
2022/09/19 10:51:50;;;;;;;6.55;1.50;;;13.60;95.60;;;;;;4966159;28;20388;-85
2022/09/19 10:54:37;;;;;;;3.85;1.00;;;13.60;94.40;;;;;;4971654;28;20401;-81
2022/09/19 10:57:25;;;;;;;2.08;0.90;;;13.60;89.80;;;;;;4975257;28;20402;-83
2022/09/19 11:00:02;;;;;;;6.97;1.10;;;13.60;85.00;;;;;;4962041;28;20448;-83
2022/09/19 11:02:29;;;;;;;4.07;1.10;;;13.60;83.50;;;;;;4984516;28;20406;-86
2022/09/19 11:05:02;;;;;;;2.85;1.30;;;13.60;82.90;;;;;;4985011;28;20424;-84
2022/09/19 11:07:59;;;;;;;3.72;1.05;;;13.70;82.00;;;;;;5011741;28;20399;-83
2022/09/19 11:10:39;;;;;;;1.93;1.07;;;13.80;82.00;;;;;;5007101;28;21024;-83
2022/09/19 11:13:26;;;;;;;2.17;1.02;;;13.70;81.70;;;;;;5009861;28;20988;-83
2022/09/19 11:16:30;;;;;;;2.90;1.07;;;13.70;80.60;;;;;;5003283;28;20405;-83
2022/09/19 11:19:03;;;;;;;3.08;1.10;;;13.70;79.70;;;;;;5008019;28;20413;-83
2022/09/19 11:21:30;;;;;;;4.03;1.20;;;13.60;80.10;;;;;;5011836;28;20469;-78
2022/09/19 11:24:04;;;;;;;3.85;1.13;;;13.50;80.10;;;;;;5012563;28;20521;-83
2022/09/19 11:26:58;;;;;;;2.72;1.08;;;13.50;81.10;;;;;;5025132;28;20470;-78
2022/09/19 11:29:44;;;;;;;2.65;1.00;;;13.50;80.60;;;;;;5021177;28;20471;-81
2022/09/19 11:32:32;;;;;;;2.80;0.90;;;13.50;78.30;;;;;;5034557;28;20405;-79
2022/09/19 11:35:07;;;;;;;2.50;0.85;;;13.50;74.70;;;;;;4979244;28;20387;-85
2022/09/19 11:37:46;;;;;;;4.00;1.00;;;13.50;74.10;;;;;;5025847;28;20852;-84
2022/09/19 11:40:19;;;;;;;3.42;0.90;;;13.50;74.50;;;;;;5034371;28;20400;-83
2022/09/19 11:43:12;;;;;;;7.88;1.30;;;13.60;74.70;;;;;;5034686;28;20405;-83
2022/09/19 11:45:56;;;;;;;17.87;2.40;;;13.50;74.90;;;;;;4974601;28;20976;-84
2022/09/19 11:49:13;;;;;;;10.25;1.70;;;13.40;77.60;;;;;;4973739;28;20433;-83
2022/09/19 11:52:06;;;;;;;10.98;1.70;;;13.20;83.50;;;;;;4956748;28;20384;-83
2022/09/19 11:54:44;;;;;;;10.55;1.70;;;13.00;86.40;;;;;;4935193;29;20552;-80
2022/09/19 11:57:35;;;;;;;6.68;1.50;;;12.80;88.50;;;;;;4932173;29;20401;-81
2022/09/19 12:00:13;;;;;;;6.82;2.10;;;12.70;89.90;;;;;;4926898;29;20917;-83
2022/09/19 12:03:10;;;;;;;7.63;2.17;;;12.50;90.80;;;;;;4929858;29;20409;-83
2022/09/19 12:05:56;;;;;;;5.93;2.00;;;12.40;91.20;;;;;;4933122;29;20432;-84
2022/09/19 12:08:35;;;;;;;7.88;1.83;;;12.20;92.40;;;;;;4933163;29;20406;-83
2022/09/19 12:11:14;;;;;;;5.78;1.60;;;12.00;94.40;;;;;;4929315;29;20414;-84
2022/09/19 12:13:44;;;;;;;4.53;1.40;;;12.00;95.30;;;;;;4926610;29;20398;-84
2022/09/19 12:16:24;;;;;;;5.10;1.65;;;12.00;95.30;;;;;;4941863;28;20400;-82
2022/09/19 12:19:08;;;;;;;6.03;1.50;;;12.00;95.70;;;;;;4993830;28;20467;-83
2022/09/19 12:22:12;;;;;;;4.30;1.53;;;11.90;95.90;;;;;;4982938;28;20390;-82
2022/09/19 12:24:55;;;;;;;5.70;1.70;;;11.90;96.20;;;;;;4988009;28;20401;-82
2022/09/19 12:27:43;;;;;;;5.30;1.77;;;11.80;96.90;;;;;;4991181;28;20396;-83
2022/09/19 12:30:19;;;;;;;6.43;1.75;;;11.80;97.50;;;;;;4974360;28;20789;-84
2022/09/19 12:32:56;;;;;;;6.18;1.90;;;11.70;97.60;;;;;;5034286;28;20388;-83
2022/09/19 12:35:55;;;;;;;6.40;1.70;;;11.60;98.00;;;;;;5021998;28;20888;-82
2022/09/19 12:38:29;;;;;;;5.07;1.85;;;11.60;98.50;;;;;;5034434;28;20393;-79
2022/09/19 12:41:14;;;;;;;3.20;1.60;;;11.50;98.80;;;;;;5035230;28;20472;-83
2022/09/19 12:44:13;;;;;;;4.45;1.80;;;11.40;99.20;;;;;;5034316;28;20435;-81
2022/09/19 12:46:56;;;;;;;4.15;1.80;;;11.40;99.60;;;;;;5012868;28;20392;-79
2022/09/19 12:49:36;;;;;;;4.70;1.83;;;11.30;99.90;;;;;;5043201;28;20388;-80
2022/09/19 12:52:25;;;;;;;7.05;2.05;;;11.20;99.90;;;;;;5051414;28;20465;-80
2022/09/19 12:55:04;;;;;;;7.90;1.63;;;11.20;99.90;;;;;;5030876;28;20453;-81
2022/09/19 12:57:38;;;;;;;8.30;1.83;;;11.10;99.90;;;;;;5041967;28;20462;-83
2022/09/19 13:00:06;;;;;;;6.20;1.80;;;11.00;99.90;;;;;;5036138;28;20386;-80
2022/09/19 13:02:51;;;;;;;6.05;1.70;;;11.00;99.90;;;;;;5034599;28;20869;-82
2022/09/19 13:05:38;;;;;;;7.20;1.80;;;10.90;99.90;;;;;;5022119;28;20387;-83
2022/09/19 13:08:20;;;;;;;5.57;1.90;;;11.00;99.90;;;;;;5019004;28;20460;-82
2022/09/19 13:11:25;;;;;;;7.03;1.60;;;11.00;99.90;;;;;;5029319;28;20749;-83
2022/09/19 13:13:53;;;;;;;3.20;1.50;;;10.90;99.90;;;;;;5032134;28;20443;-83
2022/09/19 13:16:25;;;;;;;5.07;1.77;;;10.80;99.90;;;;;;5029943;28;20377;-83
2022/09/19 13:24:47;;;;;;;4.22;1.67;;;10.60;99.90;;;;;;5028872;28;20400;-83
2022/09/19 13:27:15;;;;;;;5.47;1.73;;;10.50;99.90;;;;;;5020796;28;20417;-84
2022/09/19 13:29:45;;;;;;;6.25;1.92;;;10.50;99.90;;;;;;5016781;28;20424;-83
2022/09/19 13:32:54;;;;;;;3.63;1.55;;;10.40;99.90;;;;;;5021797;28;20496;-84
2022/09/19 13:35:25;;;;;;;7.25;1.80;;;9.10;99.90;;;;;;5010646;28;20391;-82
2022/09/19 13:38:09;;;;;;;5.90;2.22;;;10.50;99.90;;;;;;5028833;28;20385;-82
2022/09/19 13:40:43;;;;;;;5.80;2.00;;;10.50;99.90;;;;;;5025351;28;20393;-83
2022/09/19 13:43:22;;;;;;;4.50;1.75;;;10.50;99.90;;;;;;5031170;28;20466;-84
2022/09/19 13:46:10;;;;;;;4.97;1.63;;;10.40;99.70;;;;;;5026126;28;20387;-83
2022/09/19 13:48:49;;;;;;;6.00;1.70;;;10.50;99.70;;;;;;5022434;28;20385;-83
2022/09/19 13:51:41;;;;;;;3.50;1.45;;;10.50;99.50;;;;;;5033217;28;20392;-80
2022/09/19 13:54:44;;;;;;;5.13;1.40;;;10.60;99.10;;;;;;5019916;28;20387;-83